Toukimaru — JD2543 — position and weather

sailwx.info

Track history (hours):
 
Tides and Currents Weather Stations Pressure Air Temp Water Temp Dewpoint Dewpoint Depression Visibility Wind Speed Wind Dir Waves Ship Positions

Toukimaru

Last reported at 2017-Dec-10 20:44 UTC. Time now 2017-Dec-13 16:56 UTC.
Position N 35°03' E 140°20'.

Length 75 m; draft 4.5 m.

Type: Cargo ship. MMSI: 431000411.

Date/timePositionNaut miles runAvg speedWind from/ knotsBaromVisibWave heightAir tempDewpointWater temp
2017-Dec-10 20:44N 35°03' E 140°20'713.8
2017-Dec-10 20:15N 34°60' E 140°13'4312.3
2017-Dec-10 16:47N 34°38' E 139°28'512.9
2017-Dec-10 16:23N 34°38' E 139°22'513.1
2017-Dec-10 15:59N 34°37' E 139°15'613.4
2017-Dec-10 15:30N 34°35' E 139°08'713.3
2017-Dec-10 14:57N 34°34' E 138°59'612.4
2017-Dec-10 14:27N 34°33' E 138°51'1412.1
2017-Dec-10 13:19N 34°33' E 138°35'512.5
2017-Dec-10 12:56N 34°32' E 138°29'611.7
2017-Dec-10 12:25N 34°32' E 138°22'171 9.8
2017-Dec-09 18:53N 33°52' E 135°01'511.9
2017-Dec-09 18:29N 33°55' E 134°57'611.8
2017-Dec-09 18:00N 33°60' E 134°53'611.9
2017-Dec-09 17:30N 34°05' E 134°48'712.0
2017-Dec-09 16:55N 34°10' E 134°43'511.3
2017-Dec-09 16:26N 34°14' E 134°39'511.7
2017-Dec-09 16:00N 34°17' E 134°34'811.5
2017-Dec-09 15:19N 34°20' E 134°25'19 0.7
2017-Dec-08 13:22N 34°27' E 134°03'1712.2
2017-Dec-08 11:57N 34°26' E 134°24'512.2
2017-Dec-08 11:30N 34°29' E 134°29'612.1
2017-Dec-08 11:00N 34°32' E 134°35'611.9
2017-Dec-08 10:29N 34°36' E 134°41'611.9
2017-Dec-08 10:00N 34°40' E 134°47'4 6.9
2017-Dec-08 09:26N 34°42' E 134°50'0 0.0
2017-Dec-08 08:56N 34°42' E 134°50'0 0.0
2017-Dec-08 08:26N 34°42' E 134°50'0 0.0
2017-Dec-08 07:56N 34°42' E 134°50'0 0.0
2017-Dec-08 07:26N 34°42' E 134°50'0 0.0
2017-Dec-08 06:50N 34°42' E 134°50'0 0.0
2017-Dec-08 06:29N 34°42' E 134°50'0 0.0
2017-Dec-08 05:50N 34°42' E 134°50'0 0.0
2017-Dec-08 05:26N 34°42' E 134°50'0 0.0
2017-Dec-08 04:56N 34°42' E 134°50'0 0.0
2017-Dec-08 04:26N 34°42' E 134°50'0 0.0
2017-Dec-08 03:56N 34°42' E 134°50'0 0.0
2017-Dec-08 03:26N 34°42' E 134°50'0 0.0
2017-Dec-08 02:56N 34°42' E 134°50'0 0.0
2017-Dec-08 02:26N 34°42' E 134°50'0 0.0
2017-Dec-08 01:56N 34°42' E 134°50'3 6.1
2017-Dec-08 01:30N 34°40' E 134°49'0 0.4
2017-Dec-08 00:59N 34°40' E 134°49'0 0.1
2017-Dec-08 00:14N 34°40' E 134°49'0 0.2
2017-Dec-07 23:59N 34°40' E 134°49'0 0.0
2017-Dec-07 23:29N 34°40' E 134°49'0 0.0
2017-Dec-07 22:56N 34°40' E 134°49'0 0.0
2017-Dec-07 22:26N 34°40' E 134°49'0 0.0
2017-Dec-07 21:56N 34°40' E 134°49'0 0.0
2017-Dec-07 21:20N 34°40' E 134°49'0 0.0
2017-Dec-07 20:56N 34°40' E 134°49'0 0.0
2017-Dec-07 20:26N 34°40' E 134°49'0 0.0
2017-Dec-07 19:56N 34°40' E 134°49'0 0.0
2017-Dec-07 19:26N 34°40' E 134°49'0 0.0
2017-Dec-07 18:56N 34°40' E 134°49'0 0.0
2017-Dec-07 18:26N 34°40' E 134°49'0 0.0
2017-Dec-07 17:56N 34°40' E 134°49'0 0.0
2017-Dec-07 17:26N 34°40' E 134°49'0 0.0
2017-Dec-07 16:50N 34°40' E 134°49'0 0.0
2017-Dec-07 16:26N 34°40' E 134°49'0 0.1
2017-Dec-07 15:50N 34°40' E 134°49'0 0.1
2017-Dec-07 15:26N 34°40' E 134°49'0 0.0
2017-Dec-07 14:59N 34°40' E 134°49'0 0.0
2017-Dec-07 14:29N 34°40' E 134°49'0 0.1
2017-Dec-07 13:56N 34°40' E 134°49'0 0.0
2017-Dec-07 13:26N 34°40' E 134°49'0 0.0
2017-Dec-07 12:50N 34°40' E 134°49'0 0.0
2017-Dec-07 12:26N 34°40' E 134°49'0 0.0
2017-Dec-07 11:59N 34°40' E 134°49'1 2.9
2017-Dec-07 11:30N 34°39' E 134°47'612.4
2017-Dec-07 11:00N 34°35' E 134°41'612.6
2017-Dec-07 10:30N 34°30' E 134°37'612.6
2017-Dec-07 10:00N 34°24' E 134°37'612.5
2017-Dec-07 09:30N 34°18' E 134°38'1012.1
2017-Dec-07 08:41N 34°09' E 134°44'211.8
2017-Dec-07 08:30N 34°07' E 134°45'612.0
2017-Dec-07 08:00N 34°03' E 134°50'711.9
2017-Dec-07 07:27N 33°58' E 134°55'512.2
2017-Dec-07 07:00N 33°53' E 134°59'  
2017-Dec-04 10:31N 35°33' E 140°02'0 0.0
2017-Dec-04 10:01N 35°33' E 140°02'0 0.0
2017-Dec-04 09:31N 35°33' E 140°02'0 0.0
2017-Dec-04 09:00N 35°33' E 140°02'0 0.0
2017-Dec-04 08:30N 35°33' E 140°02'2 4.6
2017-Dec-04 08:01N 35°32' E 139°59'612.4
2017-Dec-04 07:29N 35°29' E 139°53'611.9
2017-Dec-04 07:00N 35°24' E 139°49'4 7.9
2017-Dec-04 06:30N 35°20' E 139°50'0 0.0
2017-Dec-04 06:00N 35°20' E 139°50'0 0.0
2017-Dec-04 05:30N 35°20' E 139°50'0 0.0
2017-Dec-04 05:00N 35°20' E 139°50'0 0.0
2017-Dec-04 04:30N 35°20' E 139°50'0 0.0
2017-Dec-04 04:00N 35°20' E 139°50'0 0.0
2017-Dec-04 03:30N 35°20' E 139°50'0 0.0
2017-Dec-04 03:00N 35°20' E 139°50'0 0.0
2017-Dec-04 02:30N 35°20' E 139°50'0 0.0
2017-Dec-04 02:00N 35°20' E 139°50'0 0.0
2017-Dec-04 01:24N 35°20' E 139°50'0 0.0
2017-Dec-04 01:00N 35°20' E 139°50'0 0.0
2017-Dec-04 00:30N 35°20' E 139°50'0 0.0
2017-Dec-03 23:57N 35°20' E 139°50'0 0.0
2017-Dec-03 23:30N 35°20' E 139°50'0 0.0
2017-Dec-03 23:00N 35°20' E 139°50'0 0.0
2017-Dec-03 22:30N 35°20' E 139°50'1 1.4
2017-Dec-03 21:55N 35°20' E 139°50'0 0.0
2017-Dec-03 21:30N 35°20' E 139°50'0 0.0
2017-Dec-03 21:00N 35°20' E 139°50'0 0.0
2017-Dec-03 20:30N 35°20' E 139°50'0 0.0
2017-Dec-03 20:00N 35°20' E 139°50'0 0.0
2017-Dec-03 19:30N 35°20' E 139°50'0 0.0
2017-Dec-03 18:57N 35°20' E 139°50'0 0.0
2017-Dec-03 18:30N 35°20' E 139°50'0 0.0
2017-Dec-03 18:00N 35°20' E 139°50'0 0.0
2017-Dec-03 17:30N 35°20' E 139°50'0 0.0
2017-Dec-03 17:00N 35°20' E 139°50'0 0.0
2017-Dec-03 16:30N 35°20' E 139°50'0 0.0
2017-Dec-03 16:00N 35°20' E 139°50'0 0.0
2017-Dec-03 15:30N 35°20' E 139°50'0 0.0
2017-Dec-03 15:00N 35°20' E 139°50'0 0.0
2017-Dec-03 14:27N 35°20' E 139°50'0 0.0
2017-Dec-03 14:00N 35°20' E 139°50'0 0.0
2017-Dec-03 13:30N 35°20' E 139°50'0 0.0
2017-Dec-03 12:48N 35°20' E 139°50'0 0.0
2017-Dec-03 12:30N 35°20' E 139°50'0 0.0
2017-Dec-03 12:00N 35°20' E 139°50'0 0.0
2017-Dec-03 11:30N 35°20' E 139°50'0 0.0
2017-Dec-03 11:00N 35°20' E 139°50'0 0.0
2017-Dec-03 10:30N 35°20' E 139°50'0 0.0
2017-Dec-03 10:00N 35°20' E 139°50'0 0.0
2017-Dec-03 09:30N 35°20' E 139°50'0 0.0
2017-Dec-03 09:00N 35°20' E 139°50'0 0.0
2017-Dec-03 08:30N 35°20' E 139°50'0 0.0
2017-Dec-03 08:00N 35°20' E 139°50'0 0.0
2017-Dec-03 07:30N 35°20' E 139°50'0 0.0
2017-Dec-03 07:00N 35°20' E 139°50'0 0.0
2017-Dec-03 06:30N 35°20' E 139°50'0 0.0
2017-Dec-03 06:00N 35°20' E 139°50'0 0.0
2017-Dec-03 05:30N 35°20' E 139°50'0 0.0
2017-Dec-03 04:57N 35°20' E 139°50'0 0.0
2017-Dec-03 04:30N 35°20' E 139°50'0 0.0
2017-Dec-03 03:57N 35°20' E 139°50'0 0.0
2017-Dec-03 03:30N 35°20' E 139°50'0 0.0
2017-Dec-03 03:00N 35°20' E 139°50'0 0.0
2017-Dec-03 02:30N 35°20' E 139°50'0 0.0
2017-Dec-03 01:57N 35°20' E 139°50'0 0.0
2017-Dec-03 01:30N 35°20' E 139°50'0 0.0
2017-Dec-03 00:51N 35°20' E 139°50'0 0.0
2017-Dec-03 00:30N 35°20' E 139°50'0 0.0
2017-Dec-03 00:00N 35°20' E 139°50'0 0.0
2017-Dec-02 23:27N 35°20' E 139°50'0 0.0
2017-Dec-02 22:54N 35°20' E 139°50'0 0.0
2017-Dec-02 22:30N 35°20' E 139°50'0 0.0
2017-Dec-02 21:54N 35°20' E 139°50'0 0.0
2017-Dec-02 21:30N 35°20' E 139°50'0 0.0
2017-Dec-02 21:00N 35°20' E 139°50'0 0.0
2017-Dec-02 20:30N 35°20' E 139°50'0 0.0
2017-Dec-02 19:57N 35°20' E 139°50'0 0.0
2017-Dec-02 19:30N 35°20' E 139°50'0 0.0
2017-Dec-02 18:57N 35°20' E 139°50'0 0.0
2017-Dec-02 18:30N 35°20' E 139°50'0 0.0
2017-Dec-02 17:57N 35°20' E 139°50'0 0.0
2017-Dec-02 17:30N 35°20' E 139°50'0 0.0
2017-Dec-02 17:00N 35°20' E 139°50'0 0.0
2017-Dec-02 16:30N 35°20' E 139°50'0 0.0
2017-Dec-02 15:57N 35°20' E 139°50'0 0.0
2017-Dec-02 15:30N 35°20' E 139°50'0 0.0
2017-Dec-02 15:00N 35°20' E 139°50'0 0.0
2017-Dec-02 14:30N 35°20' E 139°50'0 0.0
2017-Dec-02 14:00N 35°20' E 139°50'0 0.0
2017-Dec-02 13:30N 35°20' E 139°50'0 0.0
2017-Dec-02 13:00N 35°20' E 139°50'0 0.0
2017-Dec-02 12:30N 35°20' E 139°50'0 0.0
2017-Dec-02 12:00N 35°20' E 139°50'0 0.0
2017-Dec-02 11:30N 35°20' E 139°50'0 0.0
2017-Dec-02 11:00N 35°20' E 139°50'0 0.0
2017-Dec-02 10:30N 35°20' E 139°50'0 0.0
2017-Dec-02 10:00N 35°20' E 139°50'0 0.0
2017-Dec-02 09:30N 35°20' E 139°50'0 0.0
2017-Dec-02 09:00N 35°20' E 139°50'0 0.0
2017-Dec-02 08:27N 35°20' E 139°50'0 0.0
2017-Dec-02 08:00N 35°20' E 139°50'0 0.0
2017-Dec-02 07:30N 35°20' E 139°50'0 0.0
2017-Dec-02 06:59N 35°20' E 139°50'0 0.1
2017-Dec-02 06:30N 35°20' E 139°50'1 1.4
2017-Dec-02 05:58N 35°20' E 139°50'3 5.9
2017-Dec-02 05:30N 35°22' E 139°48'0 0.9
2017-Dec-02 05:00N 35°22' E 139°47'0 0.0
2017-Dec-02 04:30N 35°22' E 139°47'0 0.0
2017-Dec-02 04:00N 35°22' E 139°47'0 0.1
2017-Dec-02 03:30N 35°22' E 139°47'0 0.0
2017-Dec-02 03:00N 35°22' E 139°47'0 0.0
2017-Dec-02 02:30N 35°22' E 139°47'0 0.0
2017-Dec-02 02:00N 35°22' E 139°47'0 0.0
2017-Dec-02 01:30N 35°22' E 139°47'0 0.0
2017-Dec-02 01:00N 35°22' E 139°47'0 0.0
2017-Dec-02 00:30N 35°22' E 139°47'0 0.0
2017-Dec-02 00:00N 35°22' E 139°47'0 0.0
2017-Dec-01 23:30N 35°22' E 139°47'0 0.0
2017-Dec-01 23:00N 35°22' E 139°47'0 0.0
2017-Dec-01 22:30N 35°22' E 139°47'0 0.0
2017-Dec-01 22:00N 35°22' E 139°47'0 0.0
2017-Dec-01 21:30N 35°22' E 139°47'0 0.0
2017-Dec-01 21:00N 35°22' E 139°47'0 0.0
2017-Dec-01 20:30N 35°22' E 139°47'0 0.0
2017-Dec-01 20:00N 35°22' E 139°47'0 0.0
2017-Dec-01 19:30N 35°22' E 139°47'0 0.0
2017-Dec-01 19:00N 35°22' E 139°47'0 0.0
2017-Dec-01 18:30N 35°22' E 139°47'0 0.0
2017-Dec-01 18:00N 35°22' E 139°47'0 0.0
2017-Dec-01 17:30N 35°22' E 139°47'0 0.0
2017-Dec-01 17:00N 35°22' E 139°47'0 0.1
2017-Dec-01 16:30N 35°22' E 139°47'0 0.1
2017-Dec-01 16:00N 35°22' E 139°47'0 0.1
2017-Dec-01 15:30N 35°22' E 139°47'0 0.0
2017-Dec-01 15:00N 35°22' E 139°47'0 0.1
2017-Dec-01 14:30N 35°22' E 139°47'0 0.1
2017-Dec-01 14:00N 35°22' E 139°47'0 0.1
2017-Dec-01 13:30N 35°22' E 139°47'0 0.0
2017-Dec-01 13:00N 35°22' E 139°47'0 0.0
2017-Dec-01 12:30N 35°22' E 139°47'0 0.0
2017-Dec-01 12:00N 35°22' E 139°47'0 0.0
2017-Dec-01 11:30N 35°22' E 139°47'0 0.0
2017-Dec-01 11:00N 35°22' E 139°47'0 0.0
2017-Dec-01 10:30N 35°22' E 139°47'0 0.0
2017-Dec-01 10:00N 35°22' E 139°47'2 4.7
2017-Dec-01 09:31N 35°21' E 139°45'510.1
2017-Dec-01 09:01N 35°16' E 139°47'510.8
2017-Dec-01 08:30N 35°11' E 139°47'612.2
2017-Dec-01 08:00N 35°05' E 139°44'612.5
2017-Dec-01 07:30N 35°01' E 139°38'713.2
2017-Dec-01 06:58N 34°56' E 139°31'1013.5
2017-Dec-01 06:12N 34°51' E 139°21'412.8
2017-Dec-01 05:55N 34°48' E 139°17'512.7
2017-Dec-01 05:30N 34°45' E 139°12'612.2
2017-Dec-01 05:00N 34°41' E 139°07'711.5
2017-Dec-01 04:25N 34°37' E 138°60'511.5
2017-Dec-01 04:01N 34°35' E 138°55'1012.6
2017-Dec-01 03:14N 34°36' E 138°43'2 9.1
2017-Dec-01 02:59N 34°38' E 138°41'510.8
2017-Dec-01 02:29N 34°43' E 138°41'611.6
2017-Dec-01 02:00N 34°48' E 138°38'611.8
2017-Dec-01 01:30N 34°54' E 138°36'612.4
2017-Dec-01 01:00N 34°60' E 138°33'3 5.1
2017-Dec-01 00:30N 34°60' E 138°30'0 0.1
2017-Dec-01 00:00N 34°60' E 138°30'0 0.0
2017-Nov-30 23:30N 34°60' E 138°30'0 0.0
2017-Nov-30 23:00N 34°60' E 138°30'0 0.0
2017-Nov-30 22:30N 34°60' E 138°30'0 0.0
2017-Nov-30 22:00N 34°60' E 138°30'0 0.0
2017-Nov-30 21:30N 34°60' E 138°30'1 2.3
2017-Nov-30 21:01N 35°01' E 138°30'  
Track history (hours):
 
Tides and Currents Weather Stations Pressure Air Temp Water Temp Dewpoint Dewpoint Depression Visibility Wind Speed Wind Dir Waves Ship Positions

Toukimaru

Last reported at 2017-Dec-10 20:44 UTC. Time now 2017-Dec-13 16:56 UTC.
Position N 35°03' E 140°20'.

Length 75 m; draft 4.5 m.

Type: Cargo ship. MMSI: 431000411.

Date/timePositionNaut miles runAvg speedWind from/ knotsBaromVisibWave heightAir tempDewpointWater temp
2017-Dec-10 20:44N 35°03' E 140°20'713.8
2017-Dec-10 20:15N 34°60' E 140°13'4312.3
2017-Dec-10 16:47N 34°38' E 139°28'512.9
2017-Dec-10 16:23N 34°38' E 139°22'513.1
2017-Dec-10 15:59N 34°37' E 139°15'613.4
2017-Dec-10 15:30N 34°35' E 139°08'713.3
2017-Dec-10 14:57N 34°34' E 138°59'612.4
2017-Dec-10 14:27N 34°33' E 138°51'1412.1
2017-Dec-10 13:19N 34°33' E 138°35'512.5
2017-Dec-10 12:56N 34°32' E 138°29'611.7
2017-Dec-10 12:25N 34°32' E 138°22'171 9.8
2017-Dec-09 18:53N 33°52' E 135°01'511.9
2017-Dec-09 18:29N 33°55' E 134°57'611.8
2017-Dec-09 18:00N 33°60' E 134°53'611.9
2017-Dec-09 17:30N 34°05' E 134°48'712.0
2017-Dec-09 16:55N 34°10' E 134°43'511.3
2017-Dec-09 16:26N 34°14' E 134°39'511.7
2017-Dec-09 16:00N 34°17' E 134°34'811.5
2017-Dec-09 15:19N 34°20' E 134°25'19 0.7
2017-Dec-08 13:22N 34°27' E 134°03'1712.2
2017-Dec-08 11:57N 34°26' E 134°24'512.2
2017-Dec-08 11:30N 34°29' E 134°29'612.1
2017-Dec-08 11:00N 34°32' E 134°35'611.9
2017-Dec-08 10:29N 34°36' E 134°41'611.9
2017-Dec-08 10:00N 34°40' E 134°47'4 6.9
2017-Dec-08 09:26N 34°42' E 134°50'0 0.0
2017-Dec-08 08:56N 34°42' E 134°50'0 0.0
2017-Dec-08 08:26N 34°42' E 134°50'0 0.0
2017-Dec-08 07:56N 34°42' E 134°50'0 0.0
2017-Dec-08 07:26N 34°42' E 134°50'0 0.0
2017-Dec-08 06:50N 34°42' E 134°50'0 0.0
2017-Dec-08 06:29N 34°42' E 134°50'0 0.0
2017-Dec-08 05:50N 34°42' E 134°50'0 0.0
2017-Dec-08 05:26N 34°42' E 134°50'0 0.0
2017-Dec-08 04:56N 34°42' E 134°50'0 0.0
2017-Dec-08 04:26N 34°42' E 134°50'0 0.0
2017-Dec-08 03:56N 34°42' E 134°50'0 0.0
2017-Dec-08 03:26N 34°42' E 134°50'0 0.0
2017-Dec-08 02:56N 34°42' E 134°50'0 0.0
2017-Dec-08 02:26N 34°42' E 134°50'0 0.0
2017-Dec-08 01:56N 34°42' E 134°50'3 6.1
2017-Dec-08 01:30N 34°40' E 134°49'0 0.4
2017-Dec-08 00:59N 34°40' E 134°49'0 0.1
2017-Dec-08 00:14N 34°40' E 134°49'0 0.2
2017-Dec-07 23:59N 34°40' E 134°49'0 0.0
2017-Dec-07 23:29N 34°40' E 134°49'0 0.0
2017-Dec-07 22:56N 34°40' E 134°49'0 0.0
2017-Dec-07 22:26N 34°40' E 134°49'0 0.0
2017-Dec-07 21:56N 34°40' E 134°49'0 0.0
2017-Dec-07 21:20N 34°40' E 134°49'0 0.0
2017-Dec-07 20:56N 34°40' E 134°49'0 0.0
2017-Dec-07 20:26N 34°40' E 134°49'0 0.0
2017-Dec-07 19:56N 34°40' E 134°49'0 0.0
2017-Dec-07 19:26N 34°40' E 134°49'0 0.0
2017-Dec-07 18:56N 34°40' E 134°49'0 0.0
2017-Dec-07 18:26N 34°40' E 134°49'0 0.0
2017-Dec-07 17:56N 34°40' E 134°49'0 0.0
2017-Dec-07 17:26N 34°40' E 134°49'0 0.0
2017-Dec-07 16:50N 34°40' E 134°49'0 0.0
2017-Dec-07 16:26N 34°40' E 134°49'0 0.1
2017-Dec-07 15:50N 34°40' E 134°49'0 0.1
2017-Dec-07 15:26N 34°40' E 134°49'0 0.0
2017-Dec-07 14:59N 34°40' E 134°49'0 0.0
2017-Dec-07 14:29N 34°40' E 134°49'0 0.1
2017-Dec-07 13:56N 34°40' E 134°49'0 0.0
2017-Dec-07 13:26N 34°40' E 134°49'0 0.0
2017-Dec-07 12:50N 34°40' E 134°49'0 0.0
2017-Dec-07 12:26N 34°40' E 134°49'0 0.0
2017-Dec-07 11:59N 34°40' E 134°49'1 2.9
2017-Dec-07 11:30N 34°39' E 134°47'612.4
2017-Dec-07 11:00N 34°35' E 134°41'612.6
2017-Dec-07 10:30N 34°30' E 134°37'612.6
2017-Dec-07 10:00N 34°24' E 134°37'612.5
2017-Dec-07 09:30N 34°18' E 134°38'1012.1
2017-Dec-07 08:41N 34°09' E 134°44'211.8
2017-Dec-07 08:30N 34°07' E 134°45'612.0
2017-Dec-07 08:00N 34°03' E 134°50'711.9
2017-Dec-07 07:27N 33°58' E 134°55'512.2
2017-Dec-07 07:00N 33°53' E 134°59'  
2017-Dec-04 10:31N 35°33' E 140°02'0 0.0
2017-Dec-04 10:01N 35°33' E 140°02'0 0.0
2017-Dec-04 09:31N 35°33' E 140°02'0 0.0
2017-Dec-04 09:00N 35°33' E 140°02'0 0.0
2017-Dec-04 08:30N 35°33' E 140°02'2 4.6
2017-Dec-04 08:01N 35°32' E 139°59'612.4
2017-Dec-04 07:29N 35°29' E 139°53'611.9
2017-Dec-04 07:00N 35°24' E 139°49'4 7.9
2017-Dec-04 06:30N 35°20' E 139°50'0 0.0
2017-Dec-04 06:00N 35°20' E 139°50'0 0.0
2017-Dec-04 05:30N 35°20' E 139°50'0 0.0
2017-Dec-04 05:00N 35°20' E 139°50'0 0.0
2017-Dec-04 04:30N 35°20' E 139°50'0 0.0
2017-Dec-04 04:00N 35°20' E 139°50'0 0.0
2017-Dec-04 03:30N 35°20' E 139°50'0 0.0
2017-Dec-04 03:00N 35°20' E 139°50'0 0.0
2017-Dec-04 02:30N 35°20' E 139°50'0 0.0
2017-Dec-04 02:00N 35°20' E 139°50'0 0.0
2017-Dec-04 01:24N 35°20' E 139°50'0 0.0
2017-Dec-04 01:00N 35°20' E 139°50'0 0.0
2017-Dec-04 00:30N 35°20' E 139°50'0 0.0
2017-Dec-03 23:57N 35°20' E 139°50'0 0.0
2017-Dec-03 23:30N 35°20' E 139°50'0 0.0
2017-Dec-03 23:00N 35°20' E 139°50'0 0.0
2017-Dec-03 22:30N 35°20' E 139°50'1 1.4
2017-Dec-03 21:55N 35°20' E 139°50'0 0.0
2017-Dec-03 21:30N 35°20' E 139°50'0 0.0
2017-Dec-03 21:00N 35°20' E 139°50'0 0.0
2017-Dec-03 20:30N 35°20' E 139°50'0 0.0
2017-Dec-03 20:00N 35°20' E 139°50'0 0.0
2017-Dec-03 19:30N 35°20' E 139°50'0 0.0
2017-Dec-03 18:57N 35°20' E 139°50'0 0.0
2017-Dec-03 18:30N 35°20' E 139°50'0 0.0
2017-Dec-03 18:00N 35°20' E 139°50'0 0.0
2017-Dec-03 17:30N 35°20' E 139°50'0 0.0
2017-Dec-03 17:00N 35°20' E 139°50'0 0.0
2017-Dec-03 16:30N 35°20' E 139°50'0 0.0
2017-Dec-03 16:00N 35°20' E 139°50'0 0.0
2017-Dec-03 15:30N 35°20' E 139°50'0 0.0
2017-Dec-03 15:00N 35°20' E 139°50'0 0.0
2017-Dec-03 14:27N 35°20' E 139°50'0 0.0
2017-Dec-03 14:00N 35°20' E 139°50'0 0.0
2017-Dec-03 13:30N 35°20' E 139°50'0 0.0
2017-Dec-03 12:48N 35°20' E 139°50'0 0.0
2017-Dec-03 12:30N 35°20' E 139°50'0 0.0
2017-Dec-03 12:00N 35°20' E 139°50'0 0.0
2017-Dec-03 11:30N 35°20' E 139°50'0 0.0
2017-Dec-03 11:00N 35°20' E 139°50'0 0.0
2017-Dec-03 10:30N 35°20' E 139°50'0 0.0
2017-Dec-03 10:00N 35°20' E 139°50'0 0.0
2017-Dec-03 09:30N 35°20' E 139°50'0 0.0
2017-Dec-03 09:00N 35°20' E 139°50'0 0.0
2017-Dec-03 08:30N 35°20' E 139°50'0 0.0
2017-Dec-03 08:00N 35°20' E 139°50'0 0.0
2017-Dec-03 07:30N 35°20' E 139°50'0 0.0
2017-Dec-03 07:00N 35°20' E 139°50'0 0.0
2017-Dec-03 06:30N 35°20' E 139°50'0 0.0
2017-Dec-03 06:00N 35°20' E 139°50'0 0.0
2017-Dec-03 05:30N 35°20' E 139°50'0 0.0
2017-Dec-03 04:57N 35°20' E 139°50'0 0.0
2017-Dec-03 04:30N 35°20' E 139°50'0 0.0
2017-Dec-03 03:57N 35°20' E 139°50'0 0.0
2017-Dec-03 03:30N 35°20' E 139°50'0 0.0
2017-Dec-03 03:00N 35°20' E 139°50'0 0.0
2017-Dec-03 02:30N 35°20' E 139°50'0 0.0
2017-Dec-03 01:57N 35°20' E 139°50'0 0.0
2017-Dec-03 01:30N 35°20' E 139°50'0 0.0
2017-Dec-03 00:51N 35°20' E 139°50'0 0.0
2017-Dec-03 00:30N 35°20' E 139°50'0 0.0
2017-Dec-03 00:00N 35°20' E 139°50'0 0.0
2017-Dec-02 23:27N 35°20' E 139°50'0 0.0
2017-Dec-02 22:54N 35°20' E 139°50'0 0.0
2017-Dec-02 22:30N 35°20' E 139°50'0 0.0
2017-Dec-02 21:54N 35°20' E 139°50'0 0.0
2017-Dec-02 21:30N 35°20' E 139°50'0 0.0
2017-Dec-02 21:00N 35°20' E 139°50'0 0.0
2017-Dec-02 20:30N 35°20' E 139°50'0 0.0
2017-Dec-02 19:57N 35°20' E 139°50'0 0.0
2017-Dec-02 19:30N 35°20' E 139°50'0 0.0
2017-Dec-02 18:57N 35°20' E 139°50'0 0.0
2017-Dec-02 18:30N 35°20' E 139°50'0 0.0
2017-Dec-02 17:57N 35°20' E 139°50'0 0.0
2017-Dec-02 17:30N 35°20' E 139°50'0 0.0
2017-Dec-02 17:00N 35°20' E 139°50'0 0.0
2017-Dec-02 16:30N 35°20' E 139°50'0 0.0
2017-Dec-02 15:57N 35°20' E 139°50'0 0.0
2017-Dec-02 15:30N 35°20' E 139°50'0 0.0
2017-Dec-02 15:00N 35°20' E 139°50'0 0.0
2017-Dec-02 14:30N 35°20' E 139°50'0 0.0
2017-Dec-02 14:00N 35°20' E 139°50'0 0.0
2017-Dec-02 13:30N 35°20' E 139°50'0 0.0
2017-Dec-02 13:00N 35°20' E 139°50'0 0.0
2017-Dec-02 12:30N 35°20' E 139°50'0 0.0
2017-Dec-02 12:00N 35°20' E 139°50'0 0.0
2017-Dec-02 11:30N 35°20' E 139°50'0 0.0
2017-Dec-02 11:00N 35°20' E 139°50'0 0.0
2017-Dec-02 10:30N 35°20' E 139°50'0 0.0
2017-Dec-02 10:00N 35°20' E 139°50'0 0.0
2017-Dec-02 09:30N 35°20' E 139°50'0 0.0
2017-Dec-02 09:00N 35°20' E 139°50'0 0.0
2017-Dec-02 08:27N 35°20' E 139°50'0 0.0
2017-Dec-02 08:00N 35°20' E 139°50'0 0.0
2017-Dec-02 07:30N 35°20' E 139°50'0 0.0
2017-Dec-02 06:59N 35°20' E 139°50'0 0.1
2017-Dec-02 06:30N 35°20' E 139°50'1 1.4
2017-Dec-02 05:58N 35°20' E 139°50'3 5.9
2017-Dec-02 05:30N 35°22' E 139°48'0 0.9
2017-Dec-02 05:00N 35°22' E 139°47'0 0.0
2017-Dec-02 04:30N 35°22' E 139°47'0 0.0
2017-Dec-02 04:00N 35°22' E 139°47'0 0.1
2017-Dec-02 03:30N 35°22' E 139°47'0 0.0
2017-Dec-02 03:00N 35°22' E 139°47'0 0.0
2017-Dec-02 02:30N 35°22' E 139°47'0 0.0
2017-Dec-02 02:00N 35°22' E 139°47'0 0.0
2017-Dec-02 01:30N 35°22' E 139°47'0 0.0
2017-Dec-02 01:00N 35°22' E 139°47'0 0.0
2017-Dec-02 00:30N 35°22' E 139°47'0 0.0
2017-Dec-02 00:00N 35°22' E 139°47'0 0.0
2017-Dec-01 23:30N 35°22' E 139°47'0 0.0
2017-Dec-01 23:00N 35°22' E 139°47'0 0.0
2017-Dec-01 22:30N 35°22' E 139°47'0 0.0
2017-Dec-01 22:00N 35°22' E 139°47'0 0.0
2017-Dec-01 21:30N 35°22' E 139°47'0 0.0
2017-Dec-01 21:00N 35°22' E 139°47'0 0.0
2017-Dec-01 20:30N 35°22' E 139°47'0 0.0
2017-Dec-01 20:00N 35°22' E 139°47'0 0.0
2017-Dec-01 19:30N 35°22' E 139°47'0 0.0
2017-Dec-01 19:00N 35°22' E 139°47'0 0.0
2017-Dec-01 18:30N 35°22' E 139°47'0 0.0
2017-Dec-01 18:00N 35°22' E 139°47'0 0.0
2017-Dec-01 17:30N 35°22' E 139°47'0 0.0
2017-Dec-01 17:00N 35°22' E 139°47'0 0.1
2017-Dec-01 16:30N 35°22' E 139°47'0 0.1
2017-Dec-01 16:00N 35°22' E 139°47'0 0.1
2017-Dec-01 15:30N 35°22' E 139°47'0 0.0
2017-Dec-01 15:00N 35°22' E 139°47'0 0.1
2017-Dec-01 14:30N 35°22' E 139°47'0 0.1
2017-Dec-01 14:00N 35°22' E 139°47'0 0.1
2017-Dec-01 13:30N 35°22' E 139°47'0 0.0
2017-Dec-01 13:00N 35°22' E 139°47'0 0.0
2017-Dec-01 12:30N 35°22' E 139°47'0 0.0
2017-Dec-01 12:00N 35°22' E 139°47'0 0.0
2017-Dec-01 11:30N 35°22' E 139°47'0 0.0
2017-Dec-01 11:00N 35°22' E 139°47'0 0.0
2017-Dec-01 10:30N 35°22' E 139°47'0 0.0
2017-Dec-01 10:00N 35°22' E 139°47'2 4.7
2017-Dec-01 09:31N 35°21' E 139°45'510.1
2017-Dec-01 09:01N 35°16' E 139°47'510.8
2017-Dec-01 08:30N 35°11' E 139°47'612.2
2017-Dec-01 08:00N 35°05' E 139°44'612.5
2017-Dec-01 07:30N 35°01' E 139°38'713.2
2017-Dec-01 06:58N 34°56' E 139°31'1013.5
2017-Dec-01 06:12N 34°51' E 139°21'412.8
2017-Dec-01 05:55N 34°48' E 139°17'512.7
2017-Dec-01 05:30N 34°45' E 139°12'612.2
2017-Dec-01 05:00N 34°41' E 139°07'711.5
2017-Dec-01 04:25N 34°37' E 138°60'511.5
2017-Dec-01 04:01N 34°35' E 138°55'1012.6
2017-Dec-01 03:14N 34°36' E 138°43'2 9.1
2017-Dec-01 02:59N 34°38' E 138°41'510.8
2017-Dec-01 02:29N 34°43' E 138°41'611.6
2017-Dec-01 02:00N 34°48' E 138°38'611.8
2017-Dec-01 01:30N 34°54' E 138°36'612.4
2017-Dec-01 01:00N 34°60' E 138°33'3 5.1
2017-Dec-01 00:30N 34°60' E 138°30'0 0.1
2017-Dec-01 00:00N 34°60' E 138°30'0 0.0
2017-Nov-30 23:30N 34°60' E 138°30'0 0.0
2017-Nov-30 23:00N 34°60' E 138°30'0 0.0
2017-Nov-30 22:30N 34°60' E 138°30'0 0.0
2017-Nov-30 22:00N 34°60' E 138°30'0 0.0
2017-Nov-30 21:30N 34°60' E 138°30'1 2.3
2017-Nov-30 21:01N 35°01' E 138°30'  

Dump ship's entire track history